createdAt,value
2018-07-05T00:01:20.229Z,4.07
2018-07-05T00:03:54.650Z,4.07
2018-07-05T00:06:29.158Z,4.03
2018-07-05T00:09:03.171Z,4.23
2018-07-05T00:11:37.492Z,4.00
2018-07-05T00:14:12.230Z,4.00
2018-07-05T00:16:46.559Z,4.07
2018-07-05T00:19:20.949Z,4.57
2018-07-05T00:21:55.469Z,4.00
2018-07-05T00:24:29.700Z,3.73
2018-07-05T00:27:04.119Z,3.83
2018-07-05T00:29:38.638Z,4.50
2018-07-05T00:32:12.628Z,3.70
2018-07-05T00:34:46.870Z,4.07
2018-07-05T00:37:21.070Z,4.47
2018-07-05T00:39:55.179Z,3.60
2018-07-05T00:42:29.404Z,3.97
2018-07-05T00:45:03.729Z,4.23
2018-07-05T00:47:37.829Z,3.77
2018-07-05T00:50:12.160Z,4.60
2018-07-05T00:52:46.618Z,4.30
2018-07-05T00:55:20.793Z,4.50
2018-07-05T00:57:56.250Z,4.93
2018-07-05T01:00:30.538Z,4.80
2018-07-05T01:03:05.179Z,4.57
2018-07-05T01:05:39.189Z,4.67
2018-07-05T01:08:13.810Z,5.00
2018-07-05T01:10:48.239Z,5.10
2018-07-05T01:13:22.439Z,4.47
2018-07-05T01:15:57.159Z,4.57
2018-07-05T01:18:31.486Z,5.07
2018-07-05T01:21:05.609Z,5.10
2018-07-05T01:23:39.808Z,5.30
2018-07-05T01:26:14.127Z,4.87
2018-07-05T01:28:48.029Z,5.50
2018-07-05T01:31:22.157Z,5.00
2018-07-05T01:33:56.168Z,5.03
2018-07-05T01:36:30.248Z,4.73
2018-07-05T01:39:06.128Z,5.53
2018-07-05T01:41:40.136Z,4.80
2018-07-05T01:44:14.747Z,5.20
2018-07-05T01:46:48.880Z,5.73
2018-07-05T01:49:23.186Z,5.27
2018-07-05T01:51:58.118Z,5.20
2018-07-05T01:54:32.138Z,5.80
2018-07-05T01:57:06.448Z,4.97
2018-07-05T01:59:40.459Z,5.60
2018-07-05T02:02:14.676Z,5.70
2018-07-05T02:04:48.988Z,5.80
2018-07-05T02:07:23.088Z,5.30
2018-07-05T02:09:57.111Z,5.17
2018-07-05T02:12:31.430Z,4.83
2018-07-05T02:15:05.730Z,5.33
2018-07-05T02:17:40.059Z,5.50
2018-07-05T02:20:14.168Z,5.30
2018-07-05T02:22:48.189Z,5.37
2018-07-05T02:25:22.194Z,5.50
2018-07-05T02:27:56.416Z,4.53
2018-07-05T02:30:30.529Z,5.40
2018-07-05T02:33:05.041Z,4.93
2018-07-05T02:35:39.360Z,5.10
2018-07-05T02:38:17.576Z,4.90
2018-07-05T02:40:51.690Z,4.87
2018-07-05T02:43:26.412Z,5.00
2018-07-05T02:46:00.408Z,4.93
2018-07-05T02:48:34.849Z,5.80
2018-07-05T02:51:08.743Z,5.33
2018-07-05T02:53:43.199Z,5.13
2018-07-05T02:56:17.179Z,5.37
2018-07-05T02:58:51.278Z,5.23
2018-07-05T03:01:25.401Z,5.13
2018-07-05T03:03:59.615Z,4.83
2018-07-05T03:06:33.831Z,5.00
2018-07-05T03:09:08.060Z,5.13
2018-07-05T03:11:42.575Z,5.73
2018-07-05T03:14:16.584Z,5.23
2018-07-05T03:16:50.678Z,5.20
2018-07-05T03:19:24.814Z,5.10
2018-07-05T03:21:59.231Z,5.20
2018-07-05T03:24:33.230Z,5.10
2018-07-05T03:27:07.148Z,5.33
2018-07-05T03:29:41.573Z,5.17
2018-07-05T03:32:15.770Z,6.13
2018-07-05T03:34:50.009Z,7.10
2018-07-05T03:37:24.100Z,7.90
2018-07-05T03:39:58.641Z,6.30
2018-07-05T03:42:32.630Z,5.90
2018-07-05T03:45:07.144Z,5.50
2018-07-05T03:47:41.157Z,5.67
2018-07-05T03:50:15.069Z,5.80
2018-07-05T03:52:49.081Z,5.50
2018-07-05T03:55:23.590Z,5.83
2018-07-05T03:57:57.712Z,5.43
2018-07-05T04:00:32.130Z,5.47
2018-07-05T04:03:05.927Z,5.90
2018-07-05T04:05:40.147Z,5.40
2018-07-05T04:08:14.296Z,4.80
2018-07-05T04:10:48.791Z,5.10
2018-07-05T04:13:22.999Z,5.20
2018-07-05T04:15:57.428Z,5.00
2018-07-05T04:18:31.427Z,5.03
2018-07-05T04:21:05.450Z,4.83
2018-07-05T04:23:39.458Z,5.07
2018-07-05T04:26:13.570Z,5.30
2018-07-05T04:28:47.469Z,4.93
2018-07-05T04:31:21.580Z,4.53
2018-07-05T04:33:55.792Z,4.70
2018-07-05T04:36:29.802Z,4.50
2018-07-05T04:39:04.120Z,4.70
2018-07-05T04:41:38.138Z,5.17
2018-07-05T04:44:12.239Z,4.87
2018-07-05T04:46:46.969Z,5.10
2018-07-05T04:49:21.189Z,4.10
2018-07-05T04:51:55.098Z,4.77
2018-07-05T04:54:29.121Z,4.40
2018-07-05T04:57:03.022Z,4.40
2018-07-05T04:59:37.839Z,4.60
2018-07-05T05:02:11.848Z,4.50
2018-07-05T05:04:45.869Z,4.07
2018-07-05T05:07:19.869Z,4.87
2018-07-05T05:09:53.670Z,4.03
2018-07-05T05:12:30.859Z,4.10
2018-07-05T05:15:05.241Z,4.20
2018-07-05T05:17:39.922Z,3.80
2018-07-05T05:20:14.121Z,4.17
2018-07-05T05:22:48.133Z,4.30
2018-07-05T05:25:22.138Z,4.00
2018-07-05T05:27:56.051Z,4.37
2018-07-05T05:30:30.053Z,4.27
2018-07-05T05:33:03.871Z,4.23
2018-07-05T05:35:37.779Z,4.33
2018-07-05T05:38:11.676Z,4.57
2018-07-05T05:40:45.694Z,5.17
2018-07-05T05:43:20.012Z,4.30
2018-07-05T05:45:54.539Z,4.37
2018-07-05T05:48:28.638Z,4.03
2018-07-05T05:51:02.654Z,4.77
2018-07-05T05:53:36.759Z,5.43
2018-07-05T05:56:10.674Z,4.53
2018-07-05T05:58:44.816Z,4.40
2018-07-05T06:01:19.012Z,4.40
2018-07-05T06:03:53.231Z,5.10
2018-07-05T06:06:27.118Z,4.67
2018-07-05T06:09:01.471Z,4.20
2018-07-05T06:11:35.752Z,4.57
2018-07-05T06:14:10.075Z,4.37
2018-07-05T06:16:43.783Z,3.40
2018-07-05T06:19:18.000Z,4.20
2018-07-05T06:21:52.113Z,3.80
2018-07-05T06:24:26.631Z,3.80
2018-07-05T06:27:00.439Z,3.53
2018-07-05T06:30:00.772Z,3.85
2018-07-05T06:32:36.423Z,3.37
2018-07-05T06:35:11.334Z,3.10
2018-07-05T06:37:45.460Z,3.23
2018-07-05T06:40:19.472Z,3.03
2018-07-05T06:42:53.480Z,3.00
2018-07-05T06:45:27.791Z,3.50
2018-07-05T06:48:02.204Z,3.30
2018-07-05T06:50:36.733Z,2.67
2018-07-05T06:53:10.951Z,3.33
2018-07-05T06:55:45.054Z,3.27
2018-07-05T06:58:19.071Z,3.37
2018-07-05T07:00:53.599Z,4.20
2018-07-05T07:03:28.432Z,3.30
2018-07-05T07:06:02.835Z,3.57
2018-07-05T07:08:37.172Z,3.50
2018-07-05T07:11:12.699Z,3.30
2018-07-05T07:13:48.453Z,3.60
2018-07-05T07:16:22.571Z,4.10
2018-07-05T07:19:00.232Z,5.20
2018-07-05T07:21:34.709Z,3.83
2018-07-05T07:24:10.539Z,3.70
2018-07-05T07:26:44.560Z,3.80
2018-07-05T07:29:19.251Z,3.20
2018-07-05T07:31:53.289Z,3.47
2018-07-05T07:34:29.242Z,3.23
2018-07-05T07:37:03.582Z,3.40
2018-07-05T07:39:38.185Z,3.40
2018-07-05T07:42:07.182Z,3.47
2018-07-05T07:44:35.754Z,3.80
2018-07-05T07:47:05.182Z,3.00
2018-07-05T07:49:34.982Z,3.07
2018-07-05T07:52:04.386Z,2.70
2018-07-05T07:54:33.581Z,3.20
2018-07-05T07:57:02.981Z,3.20
2018-07-05T07:59:32.081Z,2.87
2018-07-05T08:02:00.861Z,2.50
2018-07-05T08:04:29.861Z,2.60
2018-07-05T08:06:59.161Z,2.40
2018-07-05T08:09:31.015Z,2.53
2018-07-05T08:12:00.421Z,3.00
2018-07-05T08:14:29.524Z,3.13
2018-07-05T08:16:58.501Z,2.57
2018-07-05T08:19:28.736Z,2.53
2018-07-05T08:21:57.605Z,2.20
2018-07-05T08:24:26.593Z,2.63
2018-07-05T08:26:55.587Z,2.67
2018-07-05T08:29:25.417Z,2.83
2018-07-05T08:31:54.816Z,2.50
2018-07-05T08:34:25.743Z,2.57
2018-07-05T08:36:55.164Z,1.97
2018-07-05T08:39:24.871Z,2.23
2018-07-05T08:42:01.139Z,2.40
2018-07-05T08:44:38.267Z,2.10
2018-07-05T08:47:07.595Z,2.53
2018-07-05T08:49:36.738Z,2.40
2018-07-05T08:52:05.597Z,2.03
2018-07-05T08:54:34.796Z,2.60
2018-07-05T08:57:06.759Z,1.97
2018-07-05T08:59:36.065Z,2.00
2018-07-05T09:02:05.257Z,1.90
2018-07-05T09:04:36.627Z,2.17
2018-07-05T09:07:08.044Z,1.90
2018-07-05T09:09:37.864Z,2.37
2018-07-05T09:12:08.383Z,2.00
2018-07-05T09:14:37.179Z,2.37
2018-07-05T09:17:06.366Z,2.00
2018-07-05T09:19:35.766Z,1.90
2018-07-05T09:22:04.987Z,2.00
2018-07-05T09:24:34.222Z,1.70
2018-07-05T09:27:03.164Z,1.83
2018-07-05T09:29:32.043Z,1.70
2018-07-05T09:32:00.856Z,1.70
2018-07-05T09:34:29.523Z,2.50
2018-07-05T09:36:58.623Z,1.93
2018-07-05T09:39:27.808Z,2.20
2018-07-05T09:41:57.002Z,1.77
2018-07-05T09:44:26.202Z,1.73
2018-07-05T09:46:55.015Z,1.83
2018-07-05T09:49:23.884Z,2.20
2018-07-05T09:51:52.665Z,1.90
2018-07-05T09:54:21.762Z,1.70
2018-07-05T09:56:51.199Z,2.00
2018-07-05T09:59:21.209Z,1.73
2018-07-05T10:01:50.223Z,1.67
2018-07-05T10:04:19.188Z,1.80
2018-07-05T10:06:49.027Z,1.90
2018-07-05T10:09:26.421Z,1.90
2018-07-05T10:11:55.576Z,1.80
2018-07-05T10:14:24.688Z,2.10
2018-07-05T10:16:53.479Z,2.30
2018-07-05T10:19:22.613Z,1.87
2018-07-05T10:21:52.086Z,2.00
2018-07-05T10:24:22.578Z,2.00
2018-07-05T10:26:51.570Z,2.60
2018-07-05T10:29:26.518Z,1.80
2018-07-05T10:32:00.629Z,2.13
2018-07-05T10:34:30.022Z,2.00
2018-07-05T10:36:59.132Z,2.00
2018-07-05T10:39:28.125Z,2.00
2018-07-05T10:42:01.700Z,1.90
2018-07-05T10:44:35.607Z,1.80
2018-07-05T10:47:09.544Z,1.63
2018-07-05T10:49:43.545Z,1.93
2018-07-05T10:52:17.547Z,1.87
2018-07-05T10:54:51.564Z,1.90
2018-07-05T10:57:28.258Z,1.70
2018-07-05T11:00:02.245Z,1.40
2018-07-05T11:02:36.566Z,1.73
2018-07-05T11:05:10.567Z,1.60
2018-07-05T11:07:44.786Z,1.60
2018-07-05T11:10:19.007Z,1.90
2018-07-05T11:12:52.999Z,1.70
2018-07-05T11:15:28.033Z,1.77
2018-07-05T11:18:02.065Z,1.72
2018-07-05T11:20:36.073Z,1.50
2018-07-05T11:23:10.086Z,1.80
2018-07-05T11:25:43.967Z,1.70
2018-07-05T11:28:17.785Z,1.82
2018-07-05T11:30:55.584Z,1.90
2018-07-05T11:33:31.855Z,1.80
2018-07-05T11:36:05.645Z,1.70
2018-07-05T11:38:39.661Z,1.77
2018-07-05T11:41:13.661Z,1.90
2018-07-05T11:43:47.594Z,1.40
2018-07-05T11:46:21.805Z,1.80
2018-07-05T11:48:56.625Z,1.60
2018-07-05T11:51:31.147Z,1.60
2018-07-05T11:54:05.554Z,1.73
2018-07-05T11:56:39.565Z,1.50
2018-07-05T11:59:15.064Z,1.40
2018-07-05T12:01:49.638Z,1.20
2018-07-05T12:04:24.160Z,1.40
2018-07-05T12:06:58.065Z,1.50
2018-07-05T12:09:31.787Z,1.87
2018-07-05T12:12:06.114Z,1.60
2018-07-05T12:14:41.019Z,1.80
2018-07-05T12:17:15.665Z,1.50
2018-07-05T12:19:49.959Z,1.60
2018-07-05T12:22:24.185Z,1.40
2018-07-05T12:24:58.114Z,1.63
2018-07-05T12:27:32.820Z,1.70
2018-07-05T12:30:07.436Z,1.87
2018-07-05T12:32:43.405Z,1.90
2018-07-05T12:35:18.117Z,1.97
2018-07-05T12:37:52.222Z,1.67
2018-07-05T12:40:27.834Z,2.07
2018-07-05T12:43:02.201Z,2.00
2018-07-05T12:45:36.126Z,1.90
2018-07-05T12:48:11.234Z,2.90
2018-07-05T12:50:45.760Z,2.93
2018-07-05T12:53:19.772Z,3.57
2018-07-05T12:55:53.680Z,2.10
2018-07-05T12:58:29.736Z,1.97
2018-07-05T13:01:09.241Z,1.87
2018-07-05T13:03:45.364Z,1.90
2018-07-05T13:06:20.477Z,2.10
2018-07-05T13:08:56.020Z,1.73
2018-07-05T13:11:31.665Z,1.83
2018-07-05T13:14:05.981Z,2.03
2018-07-05T13:16:43.225Z,2.43
2018-07-05T13:19:17.387Z,2.60
2018-07-05T13:21:52.628Z,2.33
2018-07-05T13:24:27.583Z,2.00
2018-07-05T13:27:02.086Z,2.12
2018-07-05T13:29:36.634Z,1.87
2018-07-05T13:32:11.241Z,2.50
2018-07-05T13:34:46.589Z,2.00
2018-07-05T13:37:20.804Z,2.00
2018-07-05T13:39:59.284Z,2.33
2018-07-05T13:42:33.732Z,2.50
2018-07-05T13:45:08.872Z,2.37
2018-07-05T13:47:43.179Z,2.10
2018-07-05T13:50:17.506Z,2.63
2018-07-05T13:52:52.022Z,2.27
2018-07-05T13:55:26.454Z,2.10
2018-07-05T13:58:00.871Z,2.33
2018-07-05T14:00:35.800Z,2.50
2018-07-05T14:03:15.131Z,2.67
2018-07-05T14:05:49.971Z,2.30
2018-07-05T14:08:24.595Z,2.40
2018-07-05T14:11:00.144Z,2.60
2018-07-05T14:13:34.529Z,2.10
2018-07-05T14:16:09.273Z,2.30
2018-07-05T14:18:44.003Z,2.27
2018-07-05T14:21:18.403Z,2.47
2018-07-05T14:23:52.735Z,2.27
2018-07-05T14:26:27.483Z,2.40
2018-07-05T14:29:02.230Z,2.20
2018-07-05T14:31:37.370Z,2.50
2018-07-05T14:34:13.509Z,2.37
2018-07-05T14:36:48.529Z,2.80
2018-07-05T14:39:22.941Z,2.40
2018-07-05T14:41:58.233Z,2.83
2018-07-05T14:44:32.622Z,2.53
2018-07-05T14:47:07.134Z,2.27
2018-07-05T14:49:41.134Z,2.30
2018-07-05T14:52:15.506Z,2.03
2018-07-05T14:54:49.774Z,2.33
2018-07-05T14:57:24.090Z,2.60
2018-07-05T14:59:58.606Z,2.10
2018-07-05T15:02:32.722Z,2.30
2018-07-05T15:05:06.718Z,2.30
2018-07-05T15:07:40.724Z,2.57
2018-07-05T15:10:15.170Z,3.07
2018-07-05T15:12:49.170Z,2.70
2018-07-05T15:15:23.186Z,2.77
2018-07-05T15:17:58.234Z,3.00
2018-07-05T15:20:32.643Z,3.13
2018-07-05T15:23:06.860Z,2.83
2018-07-05T15:25:40.962Z,3.10
2018-07-05T15:28:15.402Z,2.97
2018-07-05T15:30:49.622Z,3.23
2018-07-05T15:33:26.510Z,3.20
2018-07-05T15:36:00.822Z,3.20
2018-07-05T15:38:35.223Z,3.17
2018-07-05T15:41:09.231Z,2.83
2018-07-05T15:43:44.061Z,2.83
2018-07-05T15:46:18.583Z,2.80
2018-07-05T15:48:54.434Z,3.30
2018-07-05T15:51:29.151Z,3.00
2018-07-05T15:54:03.583Z,3.00
2018-07-05T15:56:37.590Z,2.97
2018-07-05T15:59:11.805Z,2.77
2018-07-05T16:01:46.424Z,2.57
2018-07-05T16:04:21.044Z,2.47
2018-07-05T16:06:55.185Z,3.00
2018-07-05T16:09:34.191Z,2.93
2018-07-05T16:12:09.219Z,2.77
2018-07-05T16:14:43.757Z,2.77
2018-07-05T16:17:18.148Z,2.87
2018-07-05T16:19:52.235Z,2.60
2018-07-05T16:22:26.590Z,3.10
2018-07-05T16:25:01.231Z,3.30
2018-07-05T16:27:35.128Z,3.17
2018-07-05T16:30:09.250Z,3.47
2018-07-05T16:32:43.867Z,2.90
2018-07-05T16:35:17.983Z,3.00
2018-07-05T16:37:52.211Z,3.07
2018-07-05T16:40:26.827Z,4.20
2018-07-05T16:43:01.077Z,3.70
2018-07-05T16:45:35.664Z,2.60
2018-07-05T16:48:09.873Z,3.27
2018-07-05T16:50:44.579Z,3.47
2018-07-05T16:53:19.117Z,4.00
2018-07-05T16:55:53.236Z,3.57
2018-07-05T16:58:27.259Z,3.33
2018-07-05T17:01:01.980Z,3.50
2018-07-05T17:03:36.178Z,3.40
2018-07-05T17:06:10.216Z,3.10
2018-07-05T17:08:44.510Z,3.30
2018-07-05T17:11:18.644Z,2.93
2018-07-05T17:13:52.663Z,3.77
2018-07-05T17:16:26.850Z,2.80
2018-07-05T17:19:00.896Z,3.23
2018-07-05T17:21:35.672Z,3.37
2018-07-05T17:24:10.225Z,3.57
2018-07-05T17:26:45.138Z,3.07
2018-07-05T17:29:19.154Z,3.43
2018-07-05T17:31:53.507Z,3.30
2018-07-05T17:34:28.226Z,3.00
2018-07-05T17:37:02.732Z,3.50
2018-07-05T17:39:37.471Z,3.00
2018-07-05T17:42:12.699Z,3.53
2018-07-05T17:44:47.236Z,4.03
2018-07-05T17:47:21.651Z,3.10
2018-07-05T17:49:55.841Z,3.57
2018-07-05T17:52:30.376Z,3.50
2018-07-05T17:55:05.224Z,3.17
2018-07-05T17:57:39.619Z,3.93
2018-07-05T18:00:13.845Z,3.53
2018-07-05T18:02:48.450Z,3.97
2018-07-05T18:05:23.180Z,3.73
2018-07-05T18:07:57.508Z,3.53
2018-07-05T18:10:32.129Z,4.03
2018-07-05T18:13:06.239Z,4.03
2018-07-05T18:15:40.761Z,4.03
2018-07-05T18:18:14.768Z,3.83
2018-07-05T18:20:49.244Z,4.97
2018-07-05T18:23:24.130Z,5.13
2018-07-05T18:25:58.439Z,6.57
2018-07-05T18:28:32.646Z,5.90
2018-07-05T18:31:07.563Z,5.97
2018-07-05T18:33:42.004Z,5.73
2018-07-05T18:36:16.216Z,5.10
2018-07-05T18:38:50.642Z,5.73
2018-07-05T18:41:24.954Z,4.40
2018-07-05T18:43:58.972Z,4.97
2018-07-05T18:46:33.193Z,4.90
2018-07-05T18:49:08.239Z,4.63
2018-07-05T18:51:42.127Z,5.10
2018-07-05T18:54:16.650Z,4.97
2018-07-05T18:56:50.948Z,4.83
2018-07-05T18:59:24.869Z,4.43
2018-07-05T19:01:59.079Z,4.73
2018-07-05T19:04:33.102Z,4.70
2018-07-05T19:07:07.205Z,5.27
2018-07-05T19:09:41.225Z,4.80
2018-07-05T19:12:16.966Z,5.20
2018-07-05T19:14:50.870Z,6.23
2018-07-05T19:17:24.993Z,6.33
2018-07-05T19:19:59.198Z,5.93
2018-07-05T19:22:33.115Z,6.23
2018-07-05T19:25:07.451Z,6.62
2018-07-05T19:27:41.947Z,6.30
2018-07-05T19:30:16.092Z,6.60
2018-07-05T19:32:50.611Z,7.00
2018-07-05T19:35:25.092Z,6.83
2018-07-05T19:37:59.225Z,6.40
2018-07-05T19:40:33.533Z,6.83
2018-07-05T19:43:07.642Z,7.07
2018-07-05T19:45:41.868Z,7.20
2018-07-05T19:48:16.251Z,7.53
2018-07-05T19:50:50.421Z,7.00
2018-07-05T19:53:24.801Z,6.67
2018-07-05T19:55:59.131Z,6.80
2018-07-05T19:58:33.659Z,7.27
2018-07-05T20:01:08.077Z,6.53
2018-07-05T20:03:42.080Z,7.27
2018-07-05T20:06:16.609Z,7.53
2018-07-05T20:08:51.110Z,8.10
2018-07-05T20:11:25.019Z,7.33
2018-07-05T20:13:59.542Z,7.53
2018-07-05T20:16:33.754Z,7.80
2018-07-05T20:19:08.089Z,6.57
2018-07-05T20:21:41.979Z,5.27
2018-07-05T20:24:16.130Z,4.50
2018-07-05T20:26:50.512Z,3.57
2018-07-05T20:29:24.845Z,4.40
2018-07-05T20:31:59.483Z,4.00
2018-07-05T20:34:33.580Z,3.77
2018-07-05T20:37:07.783Z,3.80
2018-07-05T20:39:42.004Z,3.73
2018-07-05T20:42:16.220Z,3.93
2018-07-05T20:44:50.540Z,3.83
2018-07-05T20:47:24.947Z,3.97
2018-07-05T20:49:58.962Z,3.93
2018-07-05T20:52:33.488Z,3.73
2018-07-05T20:55:08.108Z,3.47
2018-07-05T20:57:42.446Z,3.73
2018-07-05T21:00:16.542Z,3.77
2018-07-05T21:02:50.548Z,3.63
2018-07-05T21:05:24.579Z,4.80
2018-07-05T21:07:58.779Z,5.00
2018-07-05T21:10:33.510Z,4.40
2018-07-05T21:13:08.139Z,5.60
2018-07-05T21:15:42.551Z,4.63
2018-07-05T21:18:16.989Z,4.50
2018-07-05T21:20:50.970Z,4.70
2018-07-05T21:23:24.684Z,4.33
2018-07-05T21:25:59.211Z,3.87
2018-07-05T21:28:33.224Z,3.60
2018-07-05T21:31:07.841Z,3.57
2018-07-05T21:33:42.160Z,3.50
2018-07-05T21:36:16.584Z,3.37
2018-07-05T21:38:50.890Z,3.43
2018-07-05T21:41:24.997Z,3.47
2018-07-05T21:43:59.115Z,3.47
2018-07-05T21:46:33.025Z,3.17
2018-07-05T21:49:07.139Z,3.43
2018-07-05T21:51:40.943Z,3.07
2018-07-05T21:54:14.951Z,3.70
2018-07-05T21:56:49.163Z,3.53
2018-07-05T21:59:23.179Z,3.30
2018-07-05T22:01:57.201Z,2.60
2018-07-05T22:04:31.422Z,2.90
2018-07-05T22:07:05.609Z,2.73
2018-07-05T22:09:39.530Z,2.73
2018-07-05T22:12:13.642Z,3.10
2018-07-05T22:14:47.860Z,2.73
2018-07-05T22:17:26.180Z,2.70
2018-07-05T22:20:04.079Z,2.53
2018-07-05T22:22:42.170Z,2.60
2018-07-05T22:25:20.168Z,2.33
2018-07-05T22:27:58.080Z,3.30
2018-07-05T22:30:36.281Z,3.10
2018-07-05T22:33:10.619Z,3.70
2018-07-05T22:35:44.711Z,3.23
2018-07-05T22:38:19.136Z,3.20
2018-07-05T22:40:53.157Z,3.90
2018-07-05T22:43:27.237Z,3.53
2018-07-05T22:46:01.477Z,3.30
2018-07-05T22:48:35.580Z,3.50
2018-07-05T22:51:10.027Z,3.27
2018-07-05T22:53:44.626Z,3.37
2018-07-05T22:56:19.380Z,3.60
2018-07-05T22:58:53.578Z,3.77
2018-07-05T23:01:28.001Z,3.50
2018-07-05T23:04:02.222Z,3.50
2018-07-05T23:06:36.417Z,3.40
2018-07-05T23:09:10.959Z,2.90
2018-07-05T23:11:44.877Z,3.10
2018-07-05T23:14:19.226Z,2.63
2018-07-05T23:16:53.590Z,2.67
2018-07-05T23:19:27.828Z,2.80
2018-07-05T23:22:02.020Z,4.00
2018-07-05T23:24:36.549Z,3.50
2018-07-05T23:27:10.764Z,3.70
2018-07-05T23:29:44.871Z,3.87
2018-07-05T23:32:19.007Z,3.37
2018-07-05T23:34:52.778Z,3.60
2018-07-05T23:37:27.240Z,3.57
2018-07-05T23:40:01.531Z,3.30
2018-07-05T23:42:35.539Z,3.30
2018-07-05T23:45:09.549Z,3.30
2018-07-05T23:47:43.455Z,2.87
2018-07-05T23:50:17.997Z,2.80
2018-07-05T23:52:51.980Z,2.57
2018-07-05T23:55:26.088Z,3.10
2018-07-05T23:58:00.238Z,3.50
